Tangail, Bangladesh
Current Conditions -  °F | °C
As of 2:20 PM on Monday 20 Oct 2014 (Local Time) from VGHS Reporting Station
Haze Haze  
Wind Chill: 31°   Ceiling: Unl
Heat Index: 34°   Visibility: 3mi
Dew Point: 21°   Wind: 6mph
Humidity: 55%   Direction: 350°N
Pressure: 29.8"   Gusts: NA
Location:  24.25°N, 89.92°E
Report Text: VGHS 200820Z 35005KT 5000 HZ SCT015 31/21 Q1009 NOSIG
Loading
Personal Weather Stations






























Interactive Weather Map
Tropical Storm Tracking
New forecast layout! Learn more

10-Day Weather Forecast

Advertisements
Track Severe Weather on mobile